Whitewater, Colorado
Current Conditions -  °F | °C
As of 3:37 PM on Tuesday 21 Oct 2014 (Local Time) from KGJT Reporting Station
Scattered Clouds Scattered Clouds  
Wind Chill: 19°   Ceiling: Unl
Heat Index: 19°   Visibility: 10mi
Dew Point:   Wind: 8mph
Humidity: 43%   Direction: 280°W
Pressure: 29.96"   Gusts: NA
Location:  38.99°N, 108.45°W
Report Text: KGJT 212137Z 28007KT 10SM SCT080 19/06 A2996 RMK AO2 LTG DSNT SW VCSH T01890061
Loading
Personal Weather Stations






























Interactive Weather Map
Tropical Storm Tracking
New forecast layout! Learn more

10-Day Weather Forecast

Advertisements
Track Severe Weather on mobile